Time;durP1;ratioP1;P1;durP2;ratioP2;P2;SDS_P1;SDS_P2;PMS_P1;PMS_P2;Temp;Humidity;BMP_temperature;BMP_pressure;BME280_temperature;BME280_humidity;BME280_pressure;Samples;Min_cycle;Max_cycle;Signal;HPM_P1;HPM_P2
2023/06/06 00:02:16;;;;;;;6.80;3.58;;;20.80;91.00;;;;;;7400860;19;19915;-73
2023/06/06 00:04:45;;;;;;;7.55;3.22;;;20.90;91.10;;;;;;7403051;19;19942;-73
2023/06/06 00:07:12;;;;;;;7.53;3.58;;;20.90;91.10;;;;;;7400777;19;19910;-73
2023/06/06 00:09:38;;;;;;;6.00;3.25;;;20.90;91.20;;;;;;7404593;19;19929;-72
2023/06/06 00:12:04;;;;;;;8.30;3.50;;;20.80;91.40;;;;;;7396239;19;19918;-72
2023/06/06 00:14:32;;;;;;;6.50;3.40;;;20.60;91.70;;;;;;7402639;19;19929;-73
2023/06/06 00:17:00;;;;;;;6.82;3.35;;;20.60;91.90;;;;;;7400235;19;19918;-72
2023/06/06 00:19:28;;;;;;;5.70;3.40;;;20.60;91.80;;;;;;7399051;19;20255;-73
2023/06/06 00:21:53;;;;;;;7.38;3.67;;;20.60;91.80;;;;;;7404260;19;20724;-72
2023/06/06 00:24:20;;;;;;;6.55;3.47;;;20.60;92.00;;;;;;7398142;19;19948;-72
2023/06/06 00:26:46;;;;;;;8.27;3.40;;;20.50;91.70;;;;;;7399156;19;19925;-72
2023/06/06 00:29:11;;;;;;;6.57;3.33;;;20.50;91.80;;;;;;7399552;19;19915;-72
2023/06/06 00:31:37;;;;;;;5.95;3.15;;;20.70;91.70;;;;;;7400471;19;20022;-72
2023/06/06 00:34:03;;;;;;;7.45;3.35;;;20.60;91.40;;;;;;7400639;19;19946;-72
2023/06/06 00:36:28;;;;;;;8.20;3.45;;;20.60;91.40;;;;;;7400812;19;19914;-73
2023/06/06 00:38:54;;;;;;;6.72;3.42;;;20.60;91.40;;;;;;7404790;19;19922;-73
2023/06/06 00:41:20;;;;;;;6.43;3.28;;;20.60;91.30;;;;;;7401756;19;19931;-73
2023/06/06 00:43:47;;;;;;;5.78;3.13;;;20.60;91.30;;;;;;7403920;19;19926;-73
2023/06/06 00:46:13;;;;;;;7.50;3.67;;;20.50;91.20;;;;;;7398355;19;19914;-73
2023/06/06 00:48:39;;;;;;;7.22;3.13;;;20.40;91.40;;;;;;7402841;19;19929;-72
2023/06/06 00:51:08;;;;;;;5.40;2.78;;;20.40;91.40;;;;;;7399031;19;20461;-72
2023/06/06 00:53:34;;;;;;;6.40;3.58;;;20.40;91.40;;;;;;7401697;19;21087;-73
2023/06/06 00:56:00;;;;;;;5.00;2.75;;;20.40;91.40;;;;;;7403073;19;19999;-73
2023/06/06 00:58:27;;;;;;;5.28;2.92;;;20.40;91.50;;;;;;7402097;19;19927;-73
2023/06/06 01:00:52;;;;;;;7.43;3.10;;;20.40;91.40;;;;;;7403709;19;19928;-73
2023/06/06 01:03:20;;;;;;;6.20;3.05;;;20.50;91.40;;;;;;7400270;19;20355;-72
2023/06/06 01:05:47;;;;;;;6.82;3.58;;;20.50;91.40;;;;;;7402510;19;19987;-73
2023/06/06 01:08:13;;;;;;;5.32;2.95;;;20.60;91.50;;;;;;7398949;19;19915;-73
2023/06/06 01:10:40;;;;;;;7.30;3.20;;;20.50;91.40;;;;;;7398821;19;19918;-73
2023/06/06 01:13:21;;;;;;;5.35;2.65;;;20.50;91.30;;;;;;7400764;19;19932;-73
2023/06/06 01:16:02;;;;;;;5.88;3.00;;;20.50;91.30;;;;;;7400876;19;20645;-72
2023/06/06 01:18:31;;;;;;;6.20;2.72;;;20.60;91.20;;;;;;7400014;19;19919;-73
2023/06/06 01:20:58;;;;;;;6.55;3.00;;;20.60;90.90;;;;;;7401983;19;19914;-73
2023/06/06 01:23:27;;;;;;;6.15;3.25;;;20.60;91.00;;;;;;7401640;19;19925;-73
2023/06/06 01:25:56;;;;;;;7.40;3.50;;;20.40;91.20;;;;;;7400403;19;20347;-73
2023/06/06 01:28:23;;;;;;;5.65;3.25;;;20.30;91.60;;;;;;7400726;19;20364;-72
2023/06/06 01:30:49;;;;;;;;;;;20.30;92.10;;;;;;7404950;19;19978;-73
2023/06/06 01:33:38;;;;;;;5.32;3.28;;;20.20;92.20;;;;;;7401171;19;19931;-73
2023/06/06 01:36:37;;;;;;;5.28;3.28;;;20.20;92.40;;;;;;7400546;19;19935;-73
2023/06/06 01:39:08;;;;;;;8.05;3.00;;;20.20;92.60;;;;;;7386789;19;19918;-73
2023/06/06 01:41:37;;;;;;;6.35;3.47;;;20.10;92.70;;;;;;7399545;19;19926;-73
2023/06/06 01:44:06;;;;;;;6.95;4.05;;;20.10;92.60;;;;;;7397736;19;19918;-73
2023/06/06 01:46:34;;;;;;;7.40;3.88;;;20.10;92.60;;;;;;7400903;19;20343;-73
2023/06/06 01:49:01;;;;;;;6.90;3.47;;;20.10;92.60;;;;;;7401233;19;19914;-73
2023/06/06 01:51:28;;;;;;;6.45;3.83;;;20.00;92.70;;;;;;7398309;19;19915;-72
2023/06/06 01:53:58;;;;;;;7.85;3.60;;;20.00;92.60;;;;;;7399719;19;19926;-73
2023/06/06 01:56:25;;;;;;;5.85;3.35;;;20.00;92.60;;;;;;7400729;19;19986;-71
2023/06/06 01:58:54;;;;;;;6.30;3.33;;;20.00;92.60;;;;;;7397890;19;20339;-72
2023/06/06 02:01:20;;;;;;;6.85;3.40;;;20.00;92.60;;;;;;7398461;19;20347;-72
2023/06/06 02:03:46;;;;;;;6.75;3.35;;;20.00;92.80;;;;;;7401210;19;19939;-71
2023/06/06 02:06:12;;;;;;;8.48;3.63;;;19.90;92.80;;;;;;7400137;19;19926;-72
2023/06/06 02:08:37;;;;;;;6.30;3.30;;;20.00;92.90;;;;;;7400205;19;19938;-72
2023/06/06 02:11:03;;;;;;;6.63;3.20;;;20.00;92.90;;;;;;7397050;19;19939;-73
2023/06/06 02:13:29;;;;;;;4.95;3.17;;;20.00;92.90;;;;;;7401357;19;19972;-72
2023/06/06 02:15:55;;;;;;;8.32;3.42;;;20.00;93.30;;;;;;7399014;19;19922;-72
2023/06/06 02:18:21;;;;;;;9.13;4.20;;;19.90;93.40;;;;;;7395753;19;20272;-72
2023/06/06 02:20:46;;;;;;;7.43;4.13;;;19.90;93.70;;;;;;7398686;19;20261;-73
2023/06/06 02:23:13;;;;;;;6.43;3.90;;;19.90;93.70;;;;;;7402413;19;19929;-72
2023/06/06 02:25:39;;;;;;;6.85;3.60;;;19.90;93.70;;;;;;7403120;19;20377;-72
2023/06/06 02:28:07;;;;;;;6.63;3.60;;;19.90;93.70;;;;;;7403887;19;19929;-71
2023/06/06 02:30:32;;;;;;;9.57;3.55;;;19.90;94.20;;;;;;7406042;19;20845;-72
2023/06/06 02:32:59;;;;;;;5.07;3.05;;;19.80;94.40;;;;;;7405833;19;19918;-72
2023/06/06 02:35:24;;;;;;;7.28;3.75;;;19.80;94.50;;;;;;7399521;19;20086;-71
2023/06/06 02:37:50;;;;;;;6.60;3.80;;;19.80;94.50;;;;;;7403320;19;19953;-72
2023/06/06 02:40:17;;;;;;;6.43;3.78;;;19.80;94.60;;;;;;7401362;19;19971;-73
2023/06/06 02:42:43;;;;;;;6.15;3.15;;;19.80;94.60;;;;;;7405032;19;19918;-71
2023/06/06 02:45:10;;;;;;;7.18;3.90;;;19.80;94.50;;;;;;7404246;19;20300;-72
2023/06/06 02:47:36;;;;;;;6.82;4.22;;;19.80;94.30;;;;;;7405153;19;19926;-72
2023/06/06 02:50:03;;;;;;;8.70;4.22;;;19.80;94.20;;;;;;7403587;19;19919;-71
2023/06/06 02:52:31;;;;;;;7.28;3.75;;;19.80;94.10;;;;;;7402391;19;19970;-72
2023/06/06 02:54:58;;;;;;;7.53;3.75;;;19.80;94.10;;;;;;7403634;19;19957;-72
2023/06/06 02:57:23;;;;;;;5.80;3.30;;;19.80;94.20;;;;;;7401902;19;19925;-72
2023/06/06 02:59:50;;;;;;;7.65;3.90;;;19.70;94.20;;;;;;7405945;19;20453;-72
2023/06/06 03:02:16;;;;;;;7.18;3.70;;;19.70;94.30;;;;;;7400389;19;20458;-72
2023/06/06 03:04:46;;;;;;;6.68;3.80;;;19.70;94.50;;;;;;7399771;19;19943;-72
2023/06/06 03:07:12;;;;;;;8.20;4.15;;;19.60;94.60;;;;;;7401215;19;19926;-71
2023/06/06 03:09:38;;;;;;;;;;;19.60;94.80;;;;;;7405864;19;19911;-72
2023/06/06 03:12:04;;;;;;;7.25;4.03;;;19.60;95.00;;;;;;7402610;19;19918;-72
2023/06/06 03:14:30;;;;;;;7.15;3.55;;;19.60;95.30;;;;;;7405100;19;19924;-71
2023/06/06 03:16:56;;;;;;;6.90;4.13;;;19.60;95.40;;;;;;7404507;19;19975;-72
2023/06/06 03:19:23;;;;;;;7.18;4.13;;;19.50;95.60;;;;;;7404966;19;19938;-72
2023/06/06 03:21:49;;;;;;;7.20;4.25;;;19.50;95.80;;;;;;7403297;19;20314;-72
2023/06/06 03:24:16;;;;;;;8.65;4.05;;;19.50;96.00;;;;;;7400775;19;19938;-72
2023/06/06 03:26:46;;;;;;;8.93;4.50;;;19.60;96.10;;;;;;7399714;19;19926;-72
2023/06/06 03:29:13;;;;;;;6.90;4.32;;;19.50;96.10;;;;;;7397862;19;19947;-72
2023/06/06 03:31:40;;;;;;;6.50;3.80;;;19.50;96.20;;;;;;7401630;19;19947;-72
2023/06/06 03:34:06;;;;;;;8.65;4.38;;;19.50;96.30;;;;;;7398284;19;19918;-72
2023/06/06 03:36:34;;;;;;;7.40;4.28;;;19.50;96.40;;;;;;7401871;19;20332;-72
2023/06/06 03:39:00;;;;;;;7.22;4.20;;;19.40;96.70;;;;;;7403633;19;20865;-72
2023/06/06 03:41:26;;;;;;;;;;;19.40;96.80;;;;;;7406876;19;20345;-71
2023/06/06 03:43:52;;;;;;;8.50;4.72;;;19.40;97.40;;;;;;7402117;19;19931;-71
2023/06/06 03:46:18;;;;;;;7.88;4.35;;;19.40;97.30;;;;;;7398070;19;19915;-72
2023/06/06 03:48:43;;;;;;;9.20;5.20;;;19.50;97.30;;;;;;7399959;19;19951;-72
2023/06/06 03:51:09;;;;;;;9.05;4.47;;;19.50;97.30;;;;;;7402040;19;19930;-71
2023/06/06 03:53:35;;;;;;;8.60;4.68;;;19.50;97.20;;;;;;7398408;19;19922;-71
2023/06/06 03:56:01;;;;;;;7.25;4.53;;;19.40;97.30;;;;;;7401853;19;20050;-71
2023/06/06 03:58:29;;;;;;;9.02;4.50;;;19.40;97.50;;;;;;7400339;19;19919;-72
2023/06/06 04:00:58;;;;;;;8.38;4.53;;;19.40;97.40;;;;;;7402886;19;19907;-72
2023/06/06 04:03:25;;;;;;;10.82;4.60;;;19.50;97.40;;;;;;7401842;19;19949;-72
2023/06/06 04:05:52;;;;;;;11.90;4.88;;;19.50;97.40;;;;;;7404297;19;19920;-71
2023/06/06 04:08:17;;;;;;;8.15;4.65;;;19.40;97.40;;;;;;7402306;19;19919;-72
2023/06/06 04:10:43;;;;;;;7.85;4.53;;;19.40;97.40;;;;;;7404012;19;19936;-71
2023/06/06 04:13:09;;;;;;;7.97;4.53;;;19.40;97.50;;;;;;7398918;19;19922;-72
2023/06/06 04:15:35;;;;;;;8.40;4.93;;;19.40;97.50;;;;;;7402961;19;19929;-72
2023/06/06 04:18:01;;;;;;;9.07;4.53;;;19.40;97.40;;;;;;7404225;19;19918;-72
2023/06/06 04:20:28;;;;;;;7.65;4.28;;;19.40;97.30;;;;;;7401687;19;19911;-71
2023/06/06 04:22:54;;;;;;;8.57;4.40;;;19.40;97.30;;;;;;7370141;19;19924;-71
2023/06/06 04:25:20;;;;;;;7.57;4.30;;;19.40;97.30;;;;;;7401059;19;20374;-72
2023/06/06 04:27:45;;;;;;;8.07;4.38;;;19.40;97.20;;;;;;7396931;19;19914;-72
2023/06/06 04:30:19;;;;;;;7.75;4.10;;;19.40;97.30;;;;;;7399796;19;20378;-72
2023/06/06 04:32:45;;;;;;;11.55;4.22;;;19.50;97.20;;;;;;7397576;19;19931;-72
2023/06/06 04:35:11;;;;;;;7.47;4.47;;;19.50;97.20;;;;;;7400463;19;19915;-72
2023/06/06 04:37:37;;;;;;;7.30;4.63;;;19.40;97.10;;;;;;7401884;19;19925;-72
2023/06/06 04:40:08;;;;;;;7.70;4.40;;;19.40;97.20;;;;;;7400515;19;19918;-72
2023/06/06 04:42:35;;;;;;;8.10;4.38;;;19.40;97.30;;;;;;7403312;19;19914;-72
2023/06/06 04:45:05;;;;;;;8.23;4.45;;;19.40;97.30;;;;;;7397584;19;19990;-73
2023/06/06 04:47:31;;;;;;;8.70;4.80;;;19.40;97.20;;;;;;7399902;19;19910;-72
2023/06/06 04:49:58;;;;;;;7.75;4.75;;;19.40;97.20;;;;;;7396478;19;19973;-71
2023/06/06 04:52:24;;;;;;;7.65;4.60;;;19.50;97.30;;;;;;7398201;19;20279;-73
2023/06/06 04:54:51;;;;;;;7.20;4.13;;;19.50;97.30;;;;;;7397148;19;19915;-70
2023/06/06 04:57:19;;;;;;;8.75;4.45;;;19.50;97.30;;;;;;7396096;19;19919;-72
2023/06/06 04:59:50;;;;;;;7.93;4.30;;;19.60;97.30;;;;;;7400744;19;19914;-72
2023/06/06 05:02:20;;;;;;;10.10;4.82;;;19.60;97.30;;;;;;7399497;19;19919;-72
2023/06/06 05:04:50;;;;;;;7.53;4.70;;;19.70;97.30;;;;;;7378129;19;20256;-72
2023/06/06 05:07:16;;;;;;;7.90;5.50;;;19.60;97.20;;;;;;7396833;19;19911;-72
2023/06/06 05:09:41;;;;;;;8.73;5.15;;;19.60;97.20;;;;;;7399493;19;19919;-73
2023/06/06 05:12:07;;;;;;;17.05;6.05;;;19.70;97.10;;;;;;7398244;19;19922;-73
2023/06/06 05:14:33;;;;;;;8.27;5.20;;;19.70;97.00;;;;;;7398500;19;19915;-73
2023/06/06 05:16:59;;;;;;;10.32;4.95;;;19.80;96.80;;;;;;7392825;19;19921;-72
2023/06/06 05:19:25;;;;;;;8.40;5.10;;;19.80;96.70;;;;;;7397462;19;19940;-72
2023/06/06 05:21:51;;;;;;;9.13;5.07;;;19.90;96.60;;;;;;7399413;19;19915;-72
2023/06/06 05:24:16;;;;;;;9.23;5.13;;;19.90;96.40;;;;;;7395676;19;20000;-73
2023/06/06 05:26:43;;;;;;;11.00;5.55;;;20.00;96.20;;;;;;7396327;19;20514;-72
2023/06/06 05:29:09;;;;;;;;;;;20.00;96.00;;;;;;7401084;19;19918;-73
2023/06/06 05:31:35;;;;;;;9.20;5.32;;;20.00;95.80;;;;;;7402423;19;19918;-73
2023/06/06 05:34:03;;;;;;;9.38;5.25;;;20.10;95.60;;;;;;7398427;19;19923;-72
2023/06/06 05:36:29;;;;;;;9.88;5.50;;;20.10;95.50;;;;;;7394387;19;19922;-73
2023/06/06 05:38:55;;;;;;;8.30;5.30;;;20.20;95.30;;;;;;7398215;19;19939;-72
2023/06/06 05:41:22;;;;;;;11.43;5.80;;;20.20;95.10;;;;;;7391549;19;19915;-73
2023/06/06 05:43:48;;;;;;;8.60;5.97;;;20.30;94.90;;;;;;7397077;19;19911;-73
2023/06/06 05:46:14;;;;;;;10.10;6.38;;;20.30;94.70;;;;;;7398283;19;19947;-73
2023/06/06 05:48:41;;;;;;;9.82;5.97;;;20.40;94.50;;;;;;7400524;19;19970;-71
2023/06/06 05:51:07;;;;;;;12.20;6.07;;;20.40;94.30;;;;;;7397893;19;19919;-72
2023/06/06 05:53:33;;;;;;;10.43;6.03;;;20.40;94.10;;;;;;7394115;19;19919;-72
2023/06/06 05:55:59;;;;;;;10.88;7.03;;;20.50;93.90;;;;;;7394456;19;19926;-72
2023/06/06 05:58:25;;;;;;;10.02;6.35;;;20.50;93.70;;;;;;7398256;19;19922;-73
2023/06/06 06:00:51;;;;;;;10.18;6.40;;;20.60;93.50;;;;;;7399468;19;19915;-72
2023/06/06 06:03:17;;;;;;;10.85;5.97;;;20.70;93.30;;;;;;7397810;19;20486;-73
2023/06/06 06:05:43;;;;;;;9.48;7.03;;;20.80;93.10;;;;;;7398724;19;19951;-72
2023/06/06 06:08:09;;;;;;;10.20;6.78;;;20.80;92.80;;;;;;7396282;19;19919;-72
2023/06/06 06:10:36;;;;;;;15.32;6.90;;;20.90;92.50;;;;;;7395603;19;19941;-73
2023/06/06 06:13:03;;;;;;;12.63;6.97;;;20.90;92.00;;;;;;7395623;19;20356;-72
2023/06/06 06:15:29;;;;;;;;;;;21.00;91.60;;;;;;7399626;19;19918;-72
2023/06/06 06:17:55;;;;;;;11.45;6.20;;;21.10;91.10;;;;;;7392801;19;19926;-72
2023/06/06 06:20:21;;;;;;;9.80;6.22;;;21.10;89.50;;;;;;7395164;19;20251;-72
2023/06/06 06:22:47;;;;;;;10.95;5.88;;;21.10;89.50;;;;;;7398934;19;20302;-73
2023/06/06 06:25:13;;;;;;;9.05;5.65;;;21.20;88.60;;;;;;7396977;19;19918;-73
2023/06/06 06:27:40;;;;;;;13.40;5.90;;;21.30;86.30;;;;;;7397600;19;20304;-73
2023/06/06 06:30:07;;;;;;;9.07;5.90;;;21.40;85.70;;;;;;7393898;19;20331;-72
2023/06/06 06:32:33;;;;;;;7.55;5.15;;;21.40;84.70;;;;;;7398544;19;20316;-72
2023/06/06 06:35:01;;;;;;;7.15;4.07;;;21.50;83.90;;;;;;7398859;19;20244;-72
2023/06/06 06:37:29;;;;;;;6.50;3.95;;;21.60;80.00;;;;;;7392926;19;20356;-73
2023/06/06 06:39:58;;;;;;;7.97;5.03;;;21.60;78.50;;;;;;7398736;19;19989;-72
2023/06/06 06:42:25;;;;;;;7.32;3.97;;;21.80;77.00;;;;;;7398474;19;20345;-72
2023/06/06 06:44:51;;;;;;;6.93;3.95;;;21.80;76.80;;;;;;7399420;19;19951;-72
2023/06/06 06:47:17;;;;;;;7.32;3.85;;;21.90;76.00;;;;;;7393098;19;19918;-73
2023/06/06 06:49:44;;;;;;;5.97;3.70;;;21.90;76.60;;;;;;7396521;19;19919;-72
2023/06/06 06:52:11;;;;;;;7.45;3.88;;;21.90;77.30;;;;;;7387196;19;19922;-72
2023/06/06 06:54:54;;;;;;;6.93;3.90;;;21.90;77.60;;;;;;7394265;19;19934;-72
2023/06/06 06:57:21;;;;;;;7.78;4.18;;;21.90;77.60;;;;;;7397899;19;20262;-73
2023/06/06 06:59:48;;;;;;;6.30;3.55;;;21.80;76.60;;;;;;7394347;19;19922;-72
2023/06/06 07:02:14;;;;;;;7.20;3.58;;;21.90;76.70;;;;;;7389909;19;19922;-72
2023/06/06 07:04:40;;;;;;;7.85;4.25;;;21.90;77.20;;;;;;7391451;19;19915;-73
2023/06/06 07:07:07;;;;;;;7.82;3.58;;;22.10;78.30;;;;;;7372877;19;19987;-72
2023/06/06 07:09:33;;;;;;;6.15;4.15;;;22.20;75.70;;;;;;7398481;19;19914;-74
2023/06/06 07:11:59;;;;;;;8.45;3.88;;;22.20;74.60;;;;;;7398781;19;19935;-73
2023/06/06 07:14:29;;;;;;;8.60;3.85;;;22.30;75.30;;;;;;7349072;19;19915;-72
2023/06/06 07:16:55;;;;;;;5.97;3.70;;;22.30;74.20;;;;;;7397022;19;19918;-73
2023/06/06 07:19:21;;;;;;;6.43;3.80;;;22.30;75.10;;;;;;7395191;19;19922;-73
2023/06/06 07:21:47;;;;;;;9.70;3.70;;;22.30;74.50;;;;;;7397367;19;19921;-72
2023/06/06 07:24:13;;;;;;;6.40;3.80;;;22.30;74.20;;;;;;7400338;19;19915;-73
2023/06/06 07:26:38;;;;;;;7.07;3.67;;;22.30;74.00;;;;;;7399893;19;19922;-73
2023/06/06 07:29:04;;;;;;;9.10;4.47;;;22.40;73.40;;;;;;7395546;19;20363;-76
2023/06/06 07:31:30;;;;;;;6.75;4.05;;;22.50;74.10;;;;;;7393366;19;19910;-76
2023/06/06 07:33:58;;;;;;;7.72;3.80;;;22.60;74.30;;;;;;7357795;19;19927;-76
2023/06/06 07:36:25;;;;;;;7.50;3.58;;;22.60;72.80;;;;;;7289365;19;19916;-77
2023/06/06 07:38:51;;;;;;;7.25;3.45;;;22.70;71.80;;;;;;7338680;19;19906;-76
2023/06/06 07:41:17;;;;;;;5.80;3.10;;;22.70;71.80;;;;;;7373584;19;20247;-76
2023/06/06 07:43:43;;;;;;;5.60;3.30;;;22.70;69.60;;;;;;7348669;19;19951;-77
2023/06/06 07:46:08;;;;;;;6.95;3.85;;;22.80;70.10;;;;;;7361953;19;19926;-75
2023/06/06 07:48:35;;;;;;;7.65;4.18;;;23.00;70.80;;;;;;7301460;19;19957;-79
2023/06/06 07:51:02;;;;;;;9.27;4.45;;;23.10;70.90;;;;;;7359489;19;19927;-76
2023/06/06 07:53:27;;;;;;;7.50;4.43;;;23.10;71.60;;;;;;7351172;19;19914;-76
2023/06/06 07:55:53;;;;;;;10.30;5.25;;;23.10;72.00;;;;;;7352794;19;19995;-75
2023/06/06 07:58:25;;;;;;;7.88;4.60;;;23.10;72.00;;;;;;7362979;19;19914;-76
2023/06/06 08:00:51;;;;;;;8.30;4.93;;;23.00;71.80;;;;;;7371062;19;20004;-76
2023/06/06 08:03:17;;;;;;;7.63;4.18;;;23.10;71.90;;;;;;7352842;19;19910;-77
2023/06/06 08:05:43;;;;;;;9.40;4.75;;;23.10;71.90;;;;;;7355086;19;20027;-76
2023/06/06 08:08:09;;;;;;;9.18;4.53;;;23.20;72.20;;;;;;7346520;19;19933;-77
2023/06/06 08:10:35;;;;;;;7.90;5.28;;;23.30;71.80;;;;;;7350388;19;19922;-76
2023/06/06 08:13:01;;;;;;;12.85;5.53;;;23.40;71.90;;;;;;7365877;19;19930;-76
2023/06/06 08:15:27;;;;;;;11.40;5.43;;;23.40;72.60;;;;;;7347146;19;19933;-75
2023/06/06 08:17:53;;;;;;;12.55;5.30;;;23.30;73.20;;;;;;7384371;19;19928;-76
2023/06/06 08:20:19;;;;;;;10.85;5.43;;;23.30;72.10;;;;;;7350783;19;20422;-76
2023/06/06 08:22:49;;;;;;;8.98;5.55;;;23.40;72.40;;;;;;7324968;19;20850;-76
2023/06/06 08:25:15;;;;;;;13.00;5.13;;;23.20;73.10;;;;;;7348525;19;19939;-76
2023/06/06 08:27:41;;;;;;;9.25;5.10;;;23.20;73.60;;;;;;7366491;19;19961;-77
2023/06/06 08:30:08;;;;;;;10.48;6.25;;;23.10;73.20;;;;;;7329292;19;20247;-77
2023/06/06 08:32:37;;;;;;;8.95;5.82;;;23.30;73.20;;;;;;7365882;19;20704;-77
2023/06/06 08:35:03;;;;;;;11.25;6.07;;;23.30;73.10;;;;;;7355412;19;20232;-76
2023/06/06 08:37:30;;;;;;;9.88;4.57;;;23.40;73.20;;;;;;7352255;19;19918;-76
2023/06/06 08:39:56;;;;;;;8.15;4.85;;;23.20;74.10;;;;;;7344236;19;20362;-76
2023/06/06 08:42:23;;;;;;;13.10;5.72;;;23.40;74.20;;;;;;7333589;19;20433;-76
2023/06/06 08:44:53;;;;;;;12.55;5.72;;;23.50;74.00;;;;;;7371225;19;19921;-76
2023/06/06 08:47:23;;;;;;;9.73;5.18;;;23.80;72.80;;;;;;7397715;19;19907;-77
2023/06/06 08:49:50;;;;;;;11.48;5.30;;;23.80;71.90;;;;;;7355116;19;19947;-76
2023/06/06 08:52:17;;;;;;;9.43;5.25;;;24.00;71.60;;;;;;7380733;19;20390;-76
2023/06/06 08:54:45;;;;;;;8.48;5.10;;;24.00;70.60;;;;;;7392785;19;19935;-76
2023/06/06 08:57:11;;;;;;;10.80;5.55;;;24.00;72.00;;;;;;7355394;19;20357;-76
2023/06/06 08:59:41;;;;;;;12.55;6.78;;;24.10;71.80;;;;;;7365195;19;19931;-77
2023/06/06 09:02:07;;;;;;;9.50;4.90;;;24.30;72.20;;;;;;7350385;19;20798;-76
2023/06/06 09:04:34;;;;;;;9.68;4.78;;;24.00;70.50;;;;;;7394780;19;19990;-77
2023/06/06 09:07:13;;;;;;;8.30;5.25;;;24.00;69.60;;;;;;7404932;19;19945;-77
2023/06/06 09:09:40;;;;;;;10.85;5.20;;;24.30;69.10;;;;;;7403595;19;19922;-77
2023/06/06 09:12:09;;;;;;;8.63;5.03;;;24.40;70.90;;;;;;7379189;19;19922;-79
2023/06/06 09:14:36;;;;;;;11.52;5.00;;;24.10;71.10;;;;;;7398625;19;20516;-76
2023/06/06 09:17:03;;;;;;;12.90;5.35;;;24.10;71.30;;;;;;7381246;19;19944;-78
2023/06/06 09:19:33;;;;;;;8.52;5.40;;;24.30;71.10;;;;;;7395929;19;19910;-77
2023/06/06 09:22:05;;;;;;;12.90;5.60;;;24.30;72.30;;;;;;7395156;19;19918;-76
2023/06/06 09:24:31;;;;;;;8.60;4.28;;;24.40;73.00;;;;;;7399126;19;19949;-77
2023/06/06 09:26:57;;;;;;;10.25;5.82;;;24.10;72.30;;;;;;7403721;19;19911;-77
2023/06/06 09:29:25;;;;;;;11.05;5.63;;;24.30;75.80;;;;;;7398819;19;19948;-78
2023/06/06 09:31:51;;;;;;;11.27;5.72;;;24.20;74.30;;;;;;7400483;19;19947;-76
2023/06/06 09:34:24;;;;;;;9.65;5.68;;;24.20;75.00;;;;;;7401847;19;20343;-75
2023/06/06 09:36:52;;;;;;;8.85;5.50;;;24.40;74.10;;;;;;7361359;19;20588;-75
2023/06/06 09:39:18;;;;;;;10.07;5.53;;;24.60;75.30;;;;;;7397755;19;19922;-76
2023/06/06 09:41:48;;;;;;;10.73;4.78;;;24.30;76.60;;;;;;7399938;19;20404;-76
2023/06/06 09:44:25;;;;;;;7.50;4.57;;;24.50;76.80;;;;;;7375779;19;19922;-75
2023/06/06 09:47:01;;;;;;;8.93;4.28;;;24.70;77.20;;;;;;7401341;19;19954;-76
2023/06/06 09:49:37;;;;;;;9.02;4.43;;;24.30;78.30;;;;;;7396530;19;19918;-76
2023/06/06 09:52:05;;;;;;;7.35;3.88;;;24.60;76.70;;;;;;7400618;19;19922;-77
2023/06/06 09:54:33;;;;;;;6.57;3.70;;;24.30;77.90;;;;;;7400933;19;19915;-76
2023/06/06 09:56:59;;;;;;;7.20;3.75;;;24.40;75.50;;;;;;7401483;19;19922;-76
2023/06/06 09:59:26;;;;;;;8.60;3.63;;;24.50;76.60;;;;;;7399912;19;19919;-75
2023/06/06 10:02:02;;;;;;;7.05;3.88;;;24.40;77.10;;;;;;7398920;19;19949;-76
2023/06/06 10:04:28;;;;;;;7.47;3.83;;;24.60;77.50;;;;;;7403408;19;19910;-76
2023/06/06 10:06:57;;;;;;;7.00;3.35;;;24.80;76.40;;;;;;7397621;19;20330;-77
2023/06/06 10:09:22;;;;;;;9.45;4.07;;;24.70;75.80;;;;;;7391339;19;19937;-77
2023/06/06 10:11:50;;;;;;;6.45;4.30;;;25.10;74.80;;;;;;7356436;19;19942;-76
2023/06/06 10:14:16;;;;;;;6.20;3.47;;;24.90;74.20;;;;;;7347967;19;19963;-76
2023/06/06 10:16:42;;;;;;;10.52;3.83;;;25.30;73.80;;;;;;7367428;19;19925;-76
2023/06/06 10:19:14;;;;;;;7.72;3.47;;;25.10;74.20;;;;;;7339211;19;19940;-76
2023/06/06 10:21:41;;;;;;;8.13;3.50;;;25.10;73.00;;;;;;7380514;19;19929;-76
2023/06/06 10:24:07;;;;;;;5.93;4.35;;;25.00;72.90;;;;;;7400157;19;20347;-76
2023/06/06 10:26:46;;;;;;;5.63;2.65;;;24.70;73.40;;;;;;7382710;19;19952;-77
2023/06/06 10:29:24;;;;;;;5.30;2.63;;;25.00;73.50;;;;;;7352654;19;19914;-76
2023/06/06 10:32:15;;;;;;;4.78;2.80;;;24.90;73.40;;;;;;7380552;19;19923;-76
2023/06/06 10:34:45;;;;;;;;;;;25.00;72.60;;;;;;7361451;19;19921;-78
2023/06/06 10:37:15;;;;;;;8.38;3.10;;;25.00;73.10;;;;;;7363548;19;19919;-76
2023/06/06 10:39:45;;;;;;;11.02;3.63;;;24.80;73.50;;;;;;7357279;19;19926;-76
2023/06/06 10:42:11;;;;;;;5.70;2.63;;;24.90;73.30;;;;;;7381607;19;19948;-75
2023/06/06 10:44:43;;;;;;;8.23;2.85;;;24.70;71.70;;;;;;7379735;19;19931;-76
2023/06/06 10:47:23;;;;;;;7.30;3.70;;;24.80;72.70;;;;;;7359927;19;20209;-76
2023/06/06 10:50:07;;;;;;;6.75;3.83;;;25.00;73.10;;;;;;7385769;19;20614;-76
2023/06/06 10:53:05;;;;;;;4.90;2.83;;;24.90;69.60;;;;;;7359872;19;19927;-77
2023/06/06 10:55:30;;;;;;;10.15;2.67;;;25.00;68.70;;;;;;7336200;19;19914;-76
2023/06/06 10:58:10;;;;;;;5.20;2.38;;;25.20;70.50;;;;;;7353323;19;20592;-75
2023/06/06 11:00:40;;;;;;;6.55;3.00;;;24.90;71.30;;;;;;7350821;19;19922;-76
2023/06/06 11:03:07;;;;;;;6.85;2.67;;;25.20;71.70;;;;;;7378956;19;19941;-77
2023/06/06 11:05:53;;;;;;;5.22;2.90;;;25.30;70.90;;;;;;7374563;19;19924;-76
2023/06/06 11:08:30;;;;;;;5.55;2.70;;;25.90;70.00;;;;;;7373289;19;19914;-78
2023/06/06 11:11:17;;;;;;;6.60;3.17;;;25.80;69.60;;;;;;7356882;19;19921;-77
2023/06/06 11:13:59;;;;;;;6.95;4.03;;;25.70;67.50;;;;;;7357650;19;19943;-76
2023/06/06 11:16:29;;;;;;;7.65;2.92;;;25.60;66.70;;;;;;7365869;19;19994;-76
2023/06/06 11:19:03;;;;;;;5.63;3.00;;;25.60;68.90;;;;;;7392032;19;19925;-77
2023/06/06 11:21:31;;;;;;;6.25;2.83;;;25.60;69.30;;;;;;7380117;19;19918;-77
2023/06/06 11:23:58;;;;;;;5.07;3.40;;;25.50;69.30;;;;;;7356573;19;19919;-75
2023/06/06 11:26:27;;;;;;;6.35;2.95;;;25.40;68.80;;;;;;7369508;19;19926;-77
2023/06/06 11:28:56;;;;;;;6.97;2.72;;;25.20;69.00;;;;;;7326861;19;19950;-76
2023/06/06 11:31:27;;;;;;;5.35;3.15;;;25.60;69.10;;;;;;7369237;19;19942;-74
2023/06/06 11:34:14;;;;;;;5.40;3.33;;;26.20;68.90;;;;;;7360816;19;21126;-75
2023/06/06 11:36:41;;;;;;;7.63;3.28;;;26.20;69.90;;;;;;7341877;19;19970;-76
2023/06/06 11:39:12;;;;;;;7.13;2.88;;;26.30;69.10;;;;;;7364898;19;20785;-77
2023/06/06 11:41:45;;;;;;;7.60;3.65;;;26.40;69.40;;;;;;7357472;19;19978;-74
2023/06/06 11:44:10;;;;;;;;;;;26.20;68.30;;;;;;7350127;19;19952;-75
2023/06/06 11:46:53;;;;;;;5.13;3.67;;;26.20;68.10;;;;;;7374813;19;19918;-75
2023/06/06 11:49:21;;;;;;;8.00;5.68;;;25.80;71.50;;;;;;7357368;19;19914;-75
2023/06/06 11:52:00;;;;;;;6.43;4.32;;;26.30;71.40;;;;;;7360163;19;19918;-75
2023/06/06 11:54:27;;;;;;;5.45;3.00;;;26.20;69.60;;;;;;7344416;19;19991;-77
2023/06/06 11:56:56;;;;;;;7.63;3.80;;;26.20;69.00;;;;;;7356261;19;19920;-76
2023/06/06 11:59:23;;;;;;;7.00;3.28;;;26.40;68.80;;;;;;7349240;19;22310;-76
2023/06/06 12:01:52;;;;;;;6.75;3.85;;;26.40;68.20;;;;;;7363287;19;19911;-76
2023/06/06 12:04:20;;;;;;;7.88;2.65;;;26.00;69.60;;;;;;7357468;19;19985;-75
2023/06/06 12:06:47;;;;;;;6.72;3.20;;;26.40;69.70;;;;;;7355139;19;19915;-76
2023/06/06 12:09:16;;;;;;;6.47;3.72;;;26.00;70.60;;;;;;7339688;19;19947;-76
2023/06/06 12:11:55;;;;;;;6.68;3.95;;;26.20;69.90;;;;;;7348190;19;19926;-77
2023/06/06 12:14:25;;;;;;;5.30;3.00;;;26.30;70.40;;;;;;7362655;19;20595;-76
2023/06/06 12:16:51;;;;;;;6.75;4.22;;;26.10;70.10;;;;;;7344038;19;19978;-77
2023/06/06 12:19:19;;;;;;;5.47;2.65;;;26.10;71.00;;;;;;7354419;19;20651;-77
2023/06/06 12:21:46;;;;;;;5.13;2.85;;;27.00;68.80;;;;;;7340111;19;19919;-75
2023/06/06 12:24:16;;;;;;;6.05;2.40;;;26.60;69.10;;;;;;7347259;19;19918;-76
2023/06/06 12:26:59;;;;;;;5.30;2.67;;;26.50;68.30;;;;;;7360426;19;20298;-75
2023/06/06 12:29:33;;;;;;;4.75;2.45;;;26.90;67.70;;;;;;7353883;19;19919;-75
2023/06/06 12:32:19;;;;;;;5.53;2.63;;;26.70;66.50;;;;;;7363877;19;19927;-76
2023/06/06 12:34:49;;;;;;;6.50;3.28;;;26.90;65.50;;;;;;7338811;19;20364;-76
2023/06/06 12:37:17;;;;;;;8.65;3.72;;;26.00;64.40;;;;;;7349629;19;19922;-76
2023/06/06 12:39:45;;;;;;;6.55;4.18;;;25.60;68.50;;;;;;7345227;19;19922;-78
2023/06/06 12:42:19;;;;;;;4.95;3.72;;;26.00;68.80;;;;;;7375740;19;19918;-77
2023/06/06 12:44:46;;;;;;;5.68;3.80;;;26.40;66.70;;;;;;7353565;19;19918;-79
2023/06/06 12:47:15;;;;;;;5.90;3.65;;;26.10;67.80;;;;;;7356702;19;19919;-78
2023/06/06 12:49:42;;;;;;;6.90;4.40;;;26.10;68.20;;;;;;7389689;19;19986;-74
2023/06/06 12:52:08;;;;;;;7.32;3.53;;;26.60;67.30;;;;;;7397457;19;19918;-74
2023/06/06 12:54:39;;;;;;;6.20;3.35;;;27.20;67.00;;;;;;7393872;19;20527;-75